sensor_id;sensor_type;location;lat;lon;timestamp;P1;durP1;ratioP1;P2;durP2;ratioP2
8568;SDS011;4322;51.104;-4.162;2022-12-04T16:02:38;1.40;;;1.40;;
8568;SDS011;4322;51.104;-4.162;2022-12-04T16:05:10;1.50;;;1.50;;
8568;SDS011;4322;51.104;-4.162;2022-12-04T16:07:46;1.60;;;1.60;;
8568;SDS011;4322;51.104;-4.162;2022-12-04T16:10:18;1.70;;;1.70;;
8568;SDS011;4322;51.104;-4.162;2022-12-04T16:12:50;1.60;;;1.60;;
8568;SDS011;4322;51.104;-4.162;2022-12-04T16:15:20;1.70;;;1.70;;
8568;SDS011;4322;51.104;-4.162;2022-12-04T16:17:50;1.70;;;1.70;;
8568;SDS011;4322;51.104;-4.162;2022-12-04T16:20:18;1.60;;;1.60;;
8568;SDS011;4322;51.104;-4.162;2022-12-04T16:22:47;1.80;;;1.80;;
8568;SDS011;4322;51.104;-4.162;2022-12-04T16:25:19;1.80;;;1.80;;
8568;SDS011;4322;51.104;-4.162;2022-12-04T16:27:47;1.83;;;1.83;;
8568;SDS011;4322;51.104;-4.162;2022-12-04T16:30:15;1.70;;;1.70;;
8568;SDS011;4322;51.104;-4.162;2022-12-04T16:32:44;1.70;;;1.70;;
8568;SDS011;4322;51.104;-4.162;2022-12-04T16:35:14;1.70;;;1.70;;
8568;SDS011;4322;51.104;-4.162;2022-12-04T16:37:42;1.53;;;1.53;;
8568;SDS011;4322;51.104;-4.162;2022-12-04T16:40:11;1.77;;;1.77;;
8568;SDS011;4322;51.104;-4.162;2022-12-04T16:42:41;1.70;;;1.70;;
8568;SDS011;4322;51.104;-4.162;2022-12-04T16:45:17;1.90;;;1.90;;
8568;SDS011;4322;51.104;-4.162;2022-12-04T16:47:49;1.80;;;1.80;;
8568;SDS011;4322;51.104;-4.162;2022-12-04T16:50:19;1.80;;;1.80;;
8568;SDS011;4322;51.104;-4.162;2022-12-04T16:52:48;1.80;;;1.80;;
8568;SDS011;4322;51.104;-4.162;2022-12-04T16:55:19;1.90;;;1.90;;
8568;SDS011;4322;51.104;-4.162;2022-12-04T16:57:51;2.10;;;2.10;;
8568;SDS011;4322;51.104;-4.162;2022-12-04T17:00:19;1.73;;;1.73;;
8568;SDS011;4322;51.104;-4.162;2022-12-04T17:02:47;1.90;;;1.90;;
8568;SDS011;4322;51.104;-4.162;2022-12-04T17:05:16;2.20;;;2.10;;
8568;SDS011;4322;51.104;-4.162;2022-12-04T17:07:47;2.27;;;2.17;;
8568;SDS011;4322;51.104;-4.162;2022-12-04T17:10:15;2.00;;;2.00;;
8568;SDS011;4322;51.104;-4.162;2022-12-04T17:12:50;2.30;;;2.20;;
8568;SDS011;4322;51.104;-4.162;2022-12-04T17:15:19;2.10;;;2.10;;
8568;SDS011;4322;51.104;-4.162;2022-12-04T17:17:47;2.10;;;2.10;;
8568;SDS011;4322;51.104;-4.162;2022-12-04T17:20:16;2.20;;;2.10;;
8568;SDS011;4322;51.104;-4.162;2022-12-04T17:22:48;2.40;;;2.30;;
8568;SDS011;4322;51.104;-4.162;2022-12-04T17:25:17;2.43;;;2.33;;
8568;SDS011;4322;51.104;-4.162;2022-12-04T17:27:45;2.53;;;2.43;;
8568;SDS011;4322;51.104;-4.162;2022-12-04T17:30:13;2.30;;;2.20;;
8568;SDS011;4322;51.104;-4.162;2022-12-04T17:32:42;2.10;;;2.10;;
8568;SDS011;4322;51.104;-4.162;2022-12-04T17:35:10;2.00;;;2.00;;
8568;SDS011;4322;51.104;-4.162;2022-12-04T17:37:39;2.30;;;2.20;;
8568;SDS011;4322;51.104;-4.162;2022-12-04T17:40:09;2.50;;;2.40;;
8568;SDS011;4322;51.104;-4.162;2022-12-04T17:42:38;2.40;;;2.30;;
8568;SDS011;4322;51.104;-4.162;2022-12-04T17:45:07;2.60;;;2.50;;
8568;SDS011;4322;51.104;-4.162;2022-12-04T17:47:36;2.40;;;2.30;;
8568;SDS011;4322;51.104;-4.162;2022-12-04T17:50:05;2.50;;;2.40;;
8568;SDS011;4322;51.104;-4.162;2022-12-04T17:52:34;2.43;;;2.33;;
8568;SDS011;4322;51.104;-4.162;2022-12-04T17:55:02;2.50;;;2.40;;
8568;SDS011;4322;51.104;-4.162;2022-12-04T17:57:32;2.40;;;2.30;;
8568;SDS011;4322;51.104;-4.162;2022-12-04T18:00:00;2.50;;;2.40;;
8568;SDS011;4322;51.104;-4.162;2022-12-04T18:02:28;2.53;;;2.43;;
8568;SDS011;4322;51.104;-4.162;2022-12-04T18:04:56;2.50;;;2.40;;
8568;SDS011;4322;51.104;-4.162;2022-12-04T18:07:24;2.40;;;2.30;;
8568;SDS011;4322;51.104;-4.162;2022-12-04T18:09:53;2.40;;;2.30;;
8568;SDS011;4322;51.104;-4.162;2022-12-04T18:12:21;2.50;;;2.40;;
8568;SDS011;4322;51.104;-4.162;2022-12-04T18:14:51;2.40;;;2.30;;
8568;SDS011;4322;51.104;-4.162;2022-12-04T18:17:19;2.50;;;2.40;;
8568;SDS011;4322;51.104;-4.162;2022-12-04T18:19:48;2.50;;;2.40;;
8568;SDS011;4322;51.104;-4.162;2022-12-04T18:22:16;2.50;;;2.40;;
8568;SDS011;4322;51.104;-4.162;2022-12-04T18:24:44;2.70;;;2.60;;
8568;SDS011;4322;51.104;-4.162;2022-12-04T18:27:12;2.70;;;2.60;;
8568;SDS011;4322;51.104;-4.162;2022-12-04T18:29:40;2.50;;;2.40;;
8568;SDS011;4322;51.104;-4.162;2022-12-04T18:32:10;2.50;;;2.40;;
8568;SDS011;4322;51.104;-4.162;2022-12-04T18:34:38;2.60;;;2.50;;
8568;SDS011;4322;51.104;-4.162;2022-12-04T18:37:06;2.50;;;2.40;;
8568;SDS011;4322;51.104;-4.162;2022-12-04T18:39:34;2.60;;;2.50;;
8568;SDS011;4322;51.104;-4.162;2022-12-04T18:42:02;2.30;;;2.20;;
8568;SDS011;4322;51.104;-4.162;2022-12-04T18:44:31;2.80;;;2.70;;
8568;SDS011;4322;51.104;-4.162;2022-12-04T18:46:59;2.40;;;2.30;;
8568;SDS011;4322;51.104;-4.162;2022-12-04T18:49:29;2.50;;;2.40;;
8568;SDS011;4322;51.104;-4.162;2022-12-04T18:51:57;2.50;;;2.40;;
8568;SDS011;4322;51.104;-4.162;2022-12-04T18:54:25;2.60;;;2.50;;
8568;SDS011;4322;51.104;-4.162;2022-12-04T18:56:53;2.70;;;2.60;;
8568;SDS011;4322;51.104;-4.162;2022-12-04T18:59:22;3.00;;;2.90;;
8568;SDS011;4322;51.104;-4.162;2022-12-04T19:01:51;2.90;;;2.80;;
8568;SDS011;4322;51.104;-4.162;2022-12-04T19:04:21;3.00;;;2.90;;
8568;SDS011;4322;51.104;-4.162;2022-12-04T19:06:52;2.80;;;2.70;;
8568;SDS011;4322;51.104;-4.162;2022-12-04T19:09:22;2.70;;;2.60;;
8568;SDS011;4322;51.104;-4.162;2022-12-04T19:12:12;2.90;;;2.80;;
8568;SDS011;4322;51.104;-4.162;2022-12-04T19:14:40;2.80;;;2.70;;
8568;SDS011;4322;51.104;-4.162;2022-12-04T19:17:08;2.93;;;2.83;;
8568;SDS011;4322;51.104;-4.162;2022-12-04T19:19:37;2.80;;;2.70;;
8568;SDS011;4322;51.104;-4.162;2022-12-04T19:22:06;2.90;;;2.80;;
8568;SDS011;4322;51.104;-4.162;2022-12-04T19:24:34;2.90;;;2.80;;
8568;SDS011;4322;51.104;-4.162;2022-12-04T19:27:02;2.83;;;2.73;;
8568;SDS011;4322;51.104;-4.162;2022-12-04T19:29:37;2.90;;;2.80;;
8568;SDS011;4322;51.104;-4.162;2022-12-04T19:32:06;3.20;;;3.10;;
8568;SDS011;4322;51.104;-4.162;2022-12-04T19:34:36;3.00;;;2.90;;
8568;SDS011;4322;51.104;-4.162;2022-12-04T19:37:04;3.07;;;2.97;;
8568;SDS011;4322;51.104;-4.162;2022-12-04T19:39:34;3.00;;;2.90;;
8568;SDS011;4322;51.104;-4.162;2022-12-04T19:42:02;2.90;;;2.80;;
8568;SDS011;4322;51.104;-4.162;2022-12-04T19:44:30;2.80;;;2.70;;
8568;SDS011;4322;51.104;-4.162;2022-12-04T19:47:15;2.83;;;2.73;;
8568;SDS011;4322;51.104;-4.162;2022-12-04T19:49:43;2.70;;;2.60;;
8568;SDS011;4322;51.104;-4.162;2022-12-04T19:52:11;3.00;;;2.90;;
8568;SDS011;4322;51.104;-4.162;2022-12-04T19:54:41;3.20;;;3.10;;
8568;SDS011;4322;51.104;-4.162;2022-12-04T19:57:12;2.80;;;2.70;;
8568;SDS011;4322;51.104;-4.162;2022-12-04T19:59:41;2.80;;;2.70;;
8568;SDS011;4322;51.104;-4.162;2022-12-04T20:02:12;2.70;;;2.60;;
8568;SDS011;4322;51.104;-4.162;2022-12-04T20:04:41;2.80;;;2.70;;
8568;SDS011;4322;51.104;-4.162;2022-12-04T20:07:09;2.80;;;2.70;;
8568;SDS011;4322;51.104;-4.162;2022-12-04T20:09:37;2.60;;;2.50;;
8568;SDS011;4322;51.104;-4.162;2022-12-04T20:12:07;2.70;;;2.60;;
8568;SDS011;4322;51.104;-4.162;2022-12-04T20:14:38;2.83;;;2.73;;
8568;SDS011;4322;51.104;-4.162;2022-12-04T20:17:06;2.60;;;2.50;;
8568;SDS011;4322;51.104;-4.162;2022-12-04T20:19:35;2.70;;;2.60;;
8568;SDS011;4322;51.104;-4.162;2022-12-04T20:22:03;3.00;;;2.90;;
8568;SDS011;4322;51.104;-4.162;2022-12-04T20:24:31;2.90;;;2.80;;
8568;SDS011;4322;51.104;-4.162;2022-12-04T20:26:59;3.00;;;2.90;;
8568;SDS011;4322;51.104;-4.162;2022-12-04T20:29:29;2.80;;;2.70;;
8568;SDS011;4322;51.104;-4.162;2022-12-04T20:31:57;2.67;;;2.57;;
8568;SDS011;4322;51.104;-4.162;2022-12-04T20:34:25;3.00;;;2.90;;
8568;SDS011;4322;51.104;-4.162;2022-12-04T20:36:54;3.10;;;3.00;;
8568;SDS011;4322;51.104;-4.162;2022-12-04T20:39:23;2.77;;;2.67;;
8568;SDS011;4322;51.104;-4.162;2022-12-04T20:41:52;2.90;;;2.80;;
8568;SDS011;4322;51.104;-4.162;2022-12-04T20:44:20;3.00;;;2.90;;
8568;SDS011;4322;51.104;-4.162;2022-12-04T20:46:49;3.20;;;3.10;;
8568;SDS011;4322;51.104;-4.162;2022-12-04T20:49:18;2.90;;;2.80;;
8568;SDS011;4322;51.104;-4.162;2022-12-04T20:51:48;3.10;;;3.00;;
8568;SDS011;4322;51.104;-4.162;2022-12-04T20:54:18;2.93;;;2.83;;
8568;SDS011;4322;51.104;-4.162;2022-12-04T20:56:48;3.20;;;3.10;;
8568;SDS011;4322;51.104;-4.162;2022-12-04T20:59:19;3.00;;;2.90;;
8568;SDS011;4322;51.104;-4.162;2022-12-04T21:01:50;2.90;;;2.80;;
8568;SDS011;4322;51.104;-4.162;2022-12-04T21:04:19;3.10;;;3.00;;
8568;SDS011;4322;51.104;-4.162;2022-12-04T21:06:47;2.53;;;2.43;;
8568;SDS011;4322;51.104;-4.162;2022-12-04T21:09:17;2.80;;;2.70;;
8568;SDS011;4322;51.104;-4.162;2022-12-04T21:11:47;2.80;;;2.70;;
8568;SDS011;4322;51.104;-4.162;2022-12-04T21:14:18;3.00;;;2.90;;
8568;SDS011;4322;51.104;-4.162;2022-12-04T21:17:07;3.20;;;3.10;;
8568;SDS011;4322;51.104;-4.162;2022-12-04T21:19:37;3.17;;;3.07;;
8568;SDS011;4322;51.104;-4.162;2022-12-04T21:22:05;2.90;;;2.80;;
8568;SDS011;4322;51.104;-4.162;2022-12-04T21:24:33;3.10;;;3.00;;
8568;SDS011;4322;51.104;-4.162;2022-12-04T21:27:04;3.20;;;3.10;;
8568;SDS011;4322;51.104;-4.162;2022-12-04T21:29:34;3.10;;;3.00;;
8568;SDS011;4322;51.104;-4.162;2022-12-04T21:32:03;2.90;;;2.80;;
8568;SDS011;4322;51.104;-4.162;2022-12-04T21:34:35;3.00;;;2.90;;
8568;SDS011;4322;51.104;-4.162;2022-12-04T21:37:05;2.93;;;2.83;;
8568;SDS011;4322;51.104;-4.162;2022-12-04T21:39:33;3.10;;;3.00;;
8568;SDS011;4322;51.104;-4.162;2022-12-04T21:42:03;3.10;;;3.00;;
8568;SDS011;4322;51.104;-4.162;2022-12-04T21:44:51;2.90;;;2.80;;
8568;SDS011;4322;51.104;-4.162;2022-12-04T21:47:19;2.90;;;2.80;;
8568;SDS011;4322;51.104;-4.162;2022-12-04T21:49:49;2.87;;;2.77;;
8568;SDS011;4322;51.104;-4.162;2022-12-04T21:52:17;3.20;;;3.10;;
8568;SDS011;4322;51.104;-4.162;2022-12-04T21:54:47;2.90;;;2.80;;
8568;SDS011;4322;51.104;-4.162;2022-12-04T21:57:16;2.77;;;2.67;;
8568;SDS011;4322;51.104;-4.162;2022-12-04T21:59:44;3.00;;;2.90;;
8568;SDS011;4322;51.104;-4.162;2022-12-04T22:02:13;2.70;;;2.60;;
8568;SDS011;4322;51.104;-4.162;2022-12-04T22:04:42;2.87;;;2.77;;
8568;SDS011;4322;51.104;-4.162;2022-12-04T22:07:11;3.00;;;2.90;;
8568;SDS011;4322;51.104;-4.162;2022-12-04T22:09:40;2.90;;;2.80;;
